Time;durP1;ratioP1;P1;durP2;ratioP2;P2;SDS_P1;SDS_P2;PMS_P1;PMS_P2;Temp;Humidity;BMP_temperature;BMP_pressure;BME280_temperature;BME280_humidity;BME280_pressure;Samples;Min_cycle;Max_cycle;Signal;HPM_P1;HPM_P2
2021/07/26 00:00:27;;;;;;;2.00;1.90;;;31.70;49.50;;;;;;5026565;28;20467;-28
2021/07/26 00:02:59;;;;;;;2.20;2.00;;;31.70;49.70;;;;;;5026426;28;20488;-28
2021/07/26 00:05:31;;;;;;;1.30;1.20;;;31.60;50.60;;;;;;5026351;28;20468;-27
2021/07/26 00:08:02;;;;;;;1.40;1.30;;;31.60;44.70;;;;;;5024885;28;20456;-27
2021/07/26 00:10:34;;;;;;;3.00;1.80;;;31.60;44.80;;;;;;5007455;28;20529;-27
2021/07/26 00:13:05;;;;;;;1.90;1.80;;;31.60;48.40;;;;;;5006858;28;20474;-29
2021/07/26 00:15:36;;;;;;;1.60;1.50;;;31.70;50.40;;;;;;5006425;28;20491;-27
2021/07/26 00:18:07;;;;;;;1.70;1.60;;;31.90;48.20;;;;;;5006621;28;20453;-28
2021/07/26 00:20:40;;;;;;;1.63;1.53;;;31.80;49.00;;;;;;5023483;28;20506;-27
2021/07/26 00:23:11;;;;;;;1.60;1.50;;;31.80;48.80;;;;;;5023332;28;20451;-28
2021/07/26 00:25:42;;;;;;;2.70;1.97;;;31.60;49.60;;;;;;5024813;28;20806;-28
2021/07/26 00:28:13;;;;;;;2.10;1.90;;;31.60;50.80;;;;;;5021238;28;20484;-28
2021/07/26 00:30:44;;;;;;;2.77;2.00;;;31.40;50.90;;;;;;5023119;28;20529;-28
2021/07/26 00:34:06;;;;;;;2.00;1.90;;;31.20;51.40;;;;;;5025696;28;20459;-28
2021/07/26 00:36:40;;;;;;;1.93;1.70;;;31.10;50.80;;;;;;4960877;28;20466;-27
2021/07/26 00:39:13;;;;;;;1.80;1.70;;;31.10;49.70;;;;;;4958263;28;20659;-28
2021/07/26 00:41:44;;;;;;;2.33;2.13;;;31.10;50.40;;;;;;4970926;28;20487;-29
2021/07/26 00:44:15;;;;;;;1.97;1.73;;;31.00;51.20;;;;;;4973211;28;20510;-27
2021/07/26 00:46:47;;;;;;;1.90;1.60;;;30.90;52.00;;;;;;4969619;28;20497;-28
2021/07/26 00:49:19;;;;;;;2.27;2.17;;;30.70;51.70;;;;;;4958727;28;20555;-26
2021/07/26 00:51:53;;;;;;;2.00;1.90;;;30.70;52.50;;;;;;4975065;28;20489;-27
2021/07/26 00:54:26;;;;;;;2.73;2.27;;;30.60;53.80;;;;;;4976957;28;20452;-26
2021/07/26 00:57:00;;;;;;;3.00;2.70;;;30.60;54.60;;;;;;4959948;28;20459;-27
2021/07/26 00:59:31;;;;;;;6.07;4.77;;;30.50;55.20;;;;;;4964453;28;20516;-27
2021/07/26 01:02:02;;;;;;;2.80;2.50;;;30.50;55.00;;;;;;4964712;28;21253;-27
2021/07/26 01:04:34;;;;;;;3.20;2.83;;;30.50;55.30;;;;;;4965941;28;20490;-27
2021/07/26 01:07:07;;;;;;;4.07;2.73;;;30.40;56.40;;;;;;4967680;28;20519;-28
2021/07/26 01:09:38;;;;;;;6.40;4.90;;;30.40;56.60;;;;;;4987119;28;20445;-27
2021/07/26 01:12:09;;;;;;;7.77;7.10;;;30.30;56.30;;;;;;4995162;28;20459;-27
2021/07/26 01:14:41;;;;;;;5.20;4.70;;;30.20;56.80;;;;;;4987571;28;20496;-28
2021/07/26 01:17:13;;;;;;;6.73;6.13;;;30.20;57.50;;;;;;5004566;28;20446;-27
2021/07/26 01:19:44;;;;;;;2.80;2.60;;;30.20;57.90;;;;;;5004974;28;20519;-27
2021/07/26 01:22:17;;;;;;;4.63;4.23;;;30.10;58.20;;;;;;4994414;28;20528;-27
2021/07/26 01:24:48;;;;;;;3.97;2.30;;;29.90;58.30;;;;;;4988479;28;20472;-27
2021/07/26 01:27:19;;;;;;;2.87;2.20;;;29.80;58.60;;;;;;5004476;28;20863;-28
2021/07/26 01:29:50;;;;;;;5.63;2.60;;;29.80;59.00;;;;;;5001325;28;20464;-28
2021/07/26 01:32:21;;;;;;;3.27;2.20;;;29.80;59.30;;;;;;5004565;28;20463;-28
2021/07/26 01:34:53;;;;;;;3.20;2.37;;;29.70;59.20;;;;;;4991636;28;20448;-27
2021/07/26 01:37:26;;;;;;;3.87;2.87;;;29.70;59.70;;;;;;4998415;28;20456;-28
2021/07/26 01:39:57;;;;;;;2.70;2.27;;;29.70;59.40;;;;;;4991160;28;20489;-27
2021/07/26 01:42:28;;;;;;;3.00;2.60;;;29.70;59.70;;;;;;5000007;28;20456;-28
2021/07/26 01:44:59;;;;;;;3.00;2.80;;;29.60;59.10;;;;;;5020431;28;20592;-28
2021/07/26 01:47:31;;;;;;;3.03;2.80;;;29.60;60.10;;;;;;5027583;28;20614;-28
2021/07/26 01:50:08;;;;;;;3.00;2.70;;;29.50;60.40;;;;;;5014883;28;20454;-27
2021/07/26 01:52:41;;;;;;;3.17;2.90;;;29.50;61.30;;;;;;5007610;28;20519;-28
2021/07/26 01:55:13;;;;;;;4.23;3.80;;;29.40;60.40;;;;;;5007216;28;20917;-27
2021/07/26 01:57:45;;;;;;;3.17;2.70;;;29.40;60.70;;;;;;5017795;28;20462;-27
2021/07/26 02:00:17;;;;;;;3.60;3.27;;;29.20;60.00;;;;;;5012859;28;20558;-27
2021/07/26 02:02:48;;;;;;;3.70;3.40;;;29.20;60.60;;;;;;5014171;28;20488;-28
2021/07/26 02:05:19;;;;;;;6.03;5.53;;;29.10;61.00;;;;;;5013970;28;20463;-27
2021/07/26 02:07:51;;;;;;;4.00;2.90;;;29.00;61.70;;;;;;5013390;28;20470;-27
2021/07/26 02:10:22;;;;;;;3.60;3.30;;;28.90;61.30;;;;;;5017297;28;20490;-27
2021/07/26 02:12:53;;;;;;;3.27;3.00;;;28.80;62.20;;;;;;5020504;28;20446;-28
2021/07/26 02:15:25;;;;;;;3.80;2.80;;;28.70;62.20;;;;;;5021626;28;20492;-28
2021/07/26 02:17:56;;;;;;;3.20;2.90;;;28.70;62.90;;;;;;5020099;28;20479;-28
2021/07/26 02:20:27;;;;;;;5.40;3.47;;;28.60;63.40;;;;;;5024060;28;20502;-28
2021/07/26 02:23:00;;;;;;;4.17;3.43;;;28.70;64.20;;;;;;5007801;28;20831;-27
2021/07/26 02:25:31;;;;;;;3.73;3.43;;;28.60;64.20;;;;;;5004484;28;20447;-28
2021/07/26 02:28:02;;;;;;;3.20;2.90;;;28.60;64.50;;;;;;5014099;28;20483;-27
2021/07/26 02:30:33;;;;;;;4.97;3.50;;;28.60;64.20;;;;;;5022932;28;20817;-27
2021/07/26 02:33:04;;;;;;;3.70;3.40;;;28.50;64.80;;;;;;5021937;28;20484;-28
2021/07/26 02:35:35;;;;;;;4.30;3.90;;;28.40;65.40;;;;;;5023120;28;20844;-27
2021/07/26 02:38:08;;;;;;;4.00;3.60;;;28.30;66.00;;;;;;5008664;28;20475;-27
2021/07/26 02:40:39;;;;;;;3.83;3.33;;;28.20;66.40;;;;;;5035410;28;20965;-27
2021/07/26 02:43:10;;;;;;;4.43;3.40;;;28.10;67.10;;;;;;5013912;28;20561;-28
2021/07/26 02:45:42;;;;;;;3.97;3.60;;;27.90;67.20;;;;;;5022649;28;20508;-28
2021/07/26 02:48:18;;;;;;;3.87;3.20;;;27.80;67.70;;;;;;5015595;28;20445;-27
2021/07/26 02:50:52;;;;;;;2.90;2.50;;;27.70;68.40;;;;;;5007062;28;20461;-27
2021/07/26 02:53:26;;;;;;;3.50;3.20;;;27.70;68.60;;;;;;5018374;28;20513;-27
2021/07/26 02:56:12;;;;;;;4.90;2.77;;;27.60;68.60;;;;;;5015127;28;20448;-27
2021/07/26 02:59:08;;;;;;;3.60;2.77;;;27.50;69.20;;;;;;5014449;28;20450;-26
2021/07/26 03:01:40;;;;;;;3.70;2.97;;;27.40;70.20;;;;;;5018058;28;20492;-26
2021/07/26 03:04:12;;;;;;;2.83;2.63;;;27.10;70.50;;;;;;5018668;28;20950;-26
2021/07/26 03:06:42;;;;;;;3.10;2.50;;;27.10;70.90;;;;;;5017609;28;20444;-27
2021/07/26 03:09:15;;;;;;;5.40;3.80;;;27.00;70.70;;;;;;5009428;28;20450;-26
2021/07/26 03:11:46;;;;;;;2.87;2.60;;;26.90;71.10;;;;;;5010513;28;20460;-26
2021/07/26 03:14:17;;;;;;;3.37;2.60;;;26.80;71.20;;;;;;5022076;28;20486;-27
2021/07/26 03:16:48;;;;;;;3.10;2.53;;;26.70;71.70;;;;;;5013172;28;20475;-26
2021/07/26 03:19:19;;;;;;;3.20;2.23;;;26.60;72.20;;;;;;5006953;28;20470;-26
2021/07/26 03:22:34;;;;;;;2.67;2.40;;;26.50;72.90;;;;;;5021497;28;20861;-26
2021/07/26 03:25:07;;;;;;;4.20;2.40;;;26.30;73.20;;;;;;5013913;28;20910;-27
2021/07/26 03:27:38;;;;;;;2.67;2.13;;;26.10;74.00;;;;;;5003489;28;20456;-27
2021/07/26 03:30:11;;;;;;;3.00;2.50;;;26.10;73.90;;;;;;5012086;28;20489;-27
2021/07/26 03:32:42;;;;;;;5.70;2.57;;;26.00;75.00;;;;;;5017861;28;20473;-28
2021/07/26 03:35:14;;;;;;;2.20;2.00;;;25.90;74.10;;;;;;5022491;28;20474;-27
2021/07/26 03:37:45;;;;;;;2.80;2.20;;;25.80;74.40;;;;;;5013934;28;20468;-26
2021/07/26 03:40:18;;;;;;;2.87;2.20;;;25.60;74.60;;;;;;5010447;28;20487;-27
2021/07/26 03:42:49;;;;;;;3.07;2.43;;;25.60;74.90;;;;;;5014539;28;20494;-26
2021/07/26 03:45:23;;;;;;;2.90;2.20;;;25.50;75.30;;;;;;5013098;28;20535;-27
2021/07/26 03:47:56;;;;;;;3.10;2.27;;;25.40;75.00;;;;;;5011547;28;20452;-26
2021/07/26 03:50:28;;;;;;;2.00;1.80;;;25.30;75.30;;;;;;5013807;28;20454;-26
2021/07/26 03:52:59;;;;;;;1.60;1.50;;;25.20;75.90;;;;;;5007309;28;20464;-26
2021/07/26 03:55:33;;;;;;;2.03;1.80;;;25.20;75.90;;;;;;5011379;28;20470;-27
2021/07/26 03:58:21;;;;;;;2.03;1.83;;;25.00;76.20;;;;;;5003297;28;20457;-27
2021/07/26 04:00:52;;;;;;;2.40;2.20;;;25.00;76.70;;;;;;5020965;28;20570;-26
2021/07/26 04:03:26;;;;;;;1.97;1.87;;;24.90;77.40;;;;;;5021924;28;20489;-26
2021/07/26 04:06:02;;;;;;;1.70;1.40;;;24.80;78.10;;;;;;5016207;28;20451;-27
2021/07/26 04:08:36;;;;;;;2.00;1.80;;;24.70;78.80;;;;;;5009832;28;20525;-26
2021/07/26 04:11:12;;;;;;;1.90;1.70;;;24.60;79.00;;;;;;5005009;28;20550;-27
2021/07/26 04:13:43;;;;;;;1.67;1.57;;;24.60;79.20;;;;;;5021732;28;20446;-26
2021/07/26 04:16:14;;;;;;;2.40;1.60;;;24.60;79.00;;;;;;5021093;28;20425;-25
2021/07/26 04:18:49;;;;;;;2.40;1.90;;;24.50;79.70;;;;;;5013210;28;20466;-27
2021/07/26 04:21:20;;;;;;;1.77;1.40;;;24.40;80.40;;;;;;5002350;28;20525;-26
2021/07/26 04:23:51;;;;;;;2.70;1.67;;;24.20;81.20;;;;;;5006059;28;20596;-27
2021/07/26 04:26:23;;;;;;;1.43;1.33;;;24.20;81.10;;;;;;5020454;28;20465;-25
2021/07/26 04:28:54;;;;;;;1.50;1.40;;;24.10;81.40;;;;;;5019362;28;20768;-25
2021/07/26 04:31:25;;;;;;;1.97;1.63;;;24.10;81.60;;;;;;5022915;28;20446;-25
2021/07/26 04:33:56;;;;;;;2.20;1.30;;;24.00;82.10;;;;;;5007449;28;20521;-26
2021/07/26 04:36:27;;;;;;;1.77;1.60;;;24.00;82.70;;;;;;5014261;28;20450;-26
2021/07/26 04:38:58;;;;;;;2.10;1.57;;;23.90;83.60;;;;;;5025445;28;20490;-26
2021/07/26 04:41:31;;;;;;;2.10;1.50;;;23.80;83.90;;;;;;5025461;28;20493;-26
2021/07/26 04:44:02;;;;;;;2.27;1.47;;;23.70;84.60;;;;;;5005784;28;20506;-26
2021/07/26 04:46:33;;;;;;;2.13;1.50;;;23.70;84.90;;;;;;5014341;28;20542;-26
2021/07/26 04:49:04;;;;;;;1.53;1.43;;;23.60;85.50;;;;;;5005934;28;20459;-27
2021/07/26 04:51:35;;;;;;;1.93;1.47;;;23.50;86.60;;;;;;5005708;28;20492;-27
2021/07/26 04:54:06;;;;;;;1.70;1.60;;;23.40;86.80;;;;;;5006078;28;20459;-27
2021/07/26 04:56:39;;;;;;;2.37;1.77;;;23.40;87.60;;;;;;5019953;28;20514;-27
2021/07/26 04:59:10;;;;;;;1.50;1.40;;;23.30;88.70;;;;;;5022579;28;20460;-26
2021/07/26 05:01:41;;;;;;;4.07;1.90;;;23.20;88.90;;;;;;5006286;28;20494;-28
2021/07/26 05:04:12;;;;;;;2.80;1.67;;;23.10;89.70;;;;;;5005949;28;20534;-26
2021/07/26 05:06:43;;;;;;;2.23;2.03;;;23.10;90.00;;;;;;5005435;28;20427;-27
2021/07/26 05:09:14;;;;;;;2.67;1.73;;;23.00;90.40;;;;;;5007420;28;20541;-25
2021/07/26 05:11:47;;;;;;;2.10;1.17;;;22.90;91.00;;;;;;5023618;28;20458;-26
2021/07/26 05:14:17;;;;;;;2.00;1.43;;;22.80;91.40;;;;;;5024910;28;20486;-26
2021/07/26 05:16:49;;;;;;;2.20;1.83;;;22.70;91.60;;;;;;5025454;28;20503;-26
2021/07/26 05:19:19;;;;;;;3.03;1.60;;;22.70;92.20;;;;;;5022252;28;20454;-25
2021/07/26 05:21:51;;;;;;;1.43;1.33;;;22.60;92.60;;;;;;5023356;28;20544;-27
2021/07/26 05:24:21;;;;;;;1.87;1.30;;;22.50;93.10;;;;;;5021158;28;20441;-25
2021/07/26 05:27:01;;;;;;;3.60;1.77;;;22.40;93.70;;;;;;5020767;28;20429;-26
2021/07/26 05:29:33;;;;;;;1.60;1.50;;;22.30;94.40;;;;;;5015757;28;20465;-25
2021/07/26 05:32:04;;;;;;;2.00;1.50;;;22.30;94.90;;;;;;5012639;28;20425;-26
2021/07/26 05:34:35;;;;;;;2.50;1.67;;;22.20;95.50;;;;;;5019173;28;20565;-26
2021/07/26 05:37:06;;;;;;;1.80;1.70;;;22.10;96.20;;;;;;5019086;28;20433;-26
2021/07/26 05:39:37;;;;;;;3.00;1.30;;;22.10;96.70;;;;;;5011143;28;20443;-27
2021/07/26 05:42:11;;;;;;;1.80;1.40;;;22.00;97.30;;;;;;5011023;28;20479;-27
2021/07/26 05:44:42;;;;;;;1.90;1.33;;;21.90;98.30;;;;;;5024271;28;20492;-26
2021/07/26 05:47:13;;;;;;;2.13;1.87;;;21.90;98.50;;;;;;5024422;28;20496;-26
2021/07/26 05:49:44;;;;;;;1.63;1.53;;;21.90;98.60;;;;;;5022989;28;20752;-27
2021/07/26 05:52:16;;;;;;;2.40;1.67;;;21.90;98.90;;;;;;5021469;28;20520;-26
2021/07/26 05:54:47;;;;;;;1.70;1.60;;;21.80;99.50;;;;;;5020132;28;20450;-25
2021/07/26 05:57:21;;;;;;;1.73;1.63;;;21.70;99.90;;;;;;5024147;28;20421;-26
2021/07/26 05:59:53;;;;;;;2.50;1.30;;;21.70;99.90;;;;;;5023837;28;20452;-26
2021/07/26 06:02:24;;;;;;;1.40;1.10;;;21.50;99.90;;;;;;5024502;28;20520;-27
2021/07/26 06:04:55;;;;;;;1.60;1.30;;;21.50;99.90;;;;;;5006749;28;21008;-27
2021/07/26 06:07:26;;;;;;;1.30;1.20;;;21.50;99.90;;;;;;5018837;28;20480;-27
2021/07/26 06:09:57;;;;;;;1.50;1.40;;;21.40;99.90;;;;;;5007433;28;20447;-26
2021/07/26 06:12:30;;;;;;;1.50;1.40;;;21.40;99.90;;;;;;5005092;28;20429;-27
2021/07/26 06:15:01;;;;;;;2.77;1.70;;;21.30;99.90;;;;;;5004944;28;20455;-26
2021/07/26 06:17:32;;;;;;;1.30;1.20;;;21.30;99.90;;;;;;5009792;28;20509;-26
2021/07/26 06:20:06;;;;;;;2.27;1.50;;;21.20;99.90;;;;;;5023628;28;20516;-26
2021/07/26 06:22:37;;;;;;;2.40;1.50;;;21.20;99.90;;;;;;5023616;28;20460;-26
2021/07/26 06:25:12;;;;;;;1.53;1.43;;;21.10;99.90;;;;;;5022574;28;20458;-26
2021/07/26 06:27:45;;;;;;;1.43;1.33;;;21.10;99.90;;;;;;5010507;28;20477;-26
2021/07/26 06:30:16;;;;;;;2.77;1.40;;;21.00;99.90;;;;;;5013944;28;20421;-26
2021/07/26 06:32:48;;;;;;;2.33;1.70;;;21.00;99.90;;;;;;5014517;28;20540;-27
2021/07/26 06:35:19;;;;;;;2.07;1.37;;;21.00;99.90;;;;;;5024063;28;20450;-26
2021/07/26 06:37:50;;;;;;;2.20;1.60;;;20.90;99.90;;;;;;5023213;28;20457;-26
2021/07/26 06:40:21;;;;;;;1.93;1.70;;;20.90;99.90;;;;;;5008335;28;20477;-27
2021/07/26 06:42:55;;;;;;;3.07;1.53;;;20.80;99.90;;;;;;5004396;28;20540;-27
2021/07/26 06:45:26;;;;;;;1.70;1.60;;;20.80;99.90;;;;;;4999390;28;20417;-26
2021/07/26 06:47:57;;;;;;;2.13;1.50;;;20.80;99.90;;;;;;5004043;28;20522;-26
2021/07/26 06:50:28;;;;;;;1.70;1.60;;;20.70;99.90;;;;;;5003602;28;20447;-27
2021/07/26 06:52:59;;;;;;;1.87;1.73;;;20.70;99.90;;;;;;5003168;28;20426;-27
2021/07/26 06:55:30;;;;;;;1.57;1.47;;;20.70;99.90;;;;;;5003661;28;20771;-27
2021/07/26 06:58:02;;;;;;;1.90;1.43;;;20.50;99.90;;;;;;5003786;28;20479;-26
2021/07/26 07:00:36;;;;;;;1.87;1.57;;;20.50;99.90;;;;;;5003708;28;20888;-26
2021/07/26 07:03:07;;;;;;;1.50;1.27;;;20.40;99.90;;;;;;5003692;28;20581;-26
2021/07/26 07:05:38;;;;;;;1.93;1.43;;;20.40;99.90;;;;;;5003354;28;20455;-26
2021/07/26 07:08:09;;;;;;;1.63;1.53;;;20.40;99.90;;;;;;4997239;28;20451;-26
2021/07/26 07:10:40;;;;;;;1.67;1.33;;;20.40;99.90;;;;;;5002643;28;20451;-26
2021/07/26 07:13:13;;;;;;;1.60;1.50;;;20.30;99.90;;;;;;5003591;28;20422;-27
2021/07/26 07:15:44;;;;;;;1.33;1.23;;;20.30;99.90;;;;;;5003106;28;20422;-27
2021/07/26 07:18:15;;;;;;;3.10;1.87;;;20.20;99.90;;;;;;5003577;28;20436;-26
2021/07/26 07:20:46;;;;;;;1.80;1.70;;;20.20;99.90;;;;;;5003112;28;20491;-26
2021/07/26 07:23:16;;;;;;;1.33;1.20;;;20.10;99.90;;;;;;5003031;28;20522;-26
2021/07/26 07:25:47;;;;;;;1.77;1.67;;;20.10;99.90;;;;;;5002442;28;20478;-26
2021/07/26 07:28:20;;;;;;;1.93;1.57;;;20.00;99.90;;;;;;4994414;28;20446;-26
2021/07/26 07:30:51;;;;;;;1.70;1.60;;;20.00;99.90;;;;;;5003215;28;20417;-34
2021/07/26 07:33:22;;;;;;;1.60;1.50;;;20.00;99.90;;;;;;5003528;28;20455;-27
2021/07/26 07:35:53;;;;;;;1.73;1.63;;;20.00;99.90;;;;;;5003234;28;20510;-27
2021/07/26 07:38:25;;;;;;;1.37;1.27;;;19.90;99.90;;;;;;5003429;28;20471;-25
2021/07/26 07:40:58;;;;;;;1.40;1.10;;;19.80;99.90;;;;;;5002870;28;20455;-28
2021/07/26 07:43:31;;;;;;;1.50;1.40;;;19.80;99.90;;;;;;5007995;28;20872;-27
2021/07/26 07:46:03;;;;;;;4.40;1.67;;;19.80;99.90;;;;;;5013068;28;20921;-27
2021/07/26 07:48:35;;;;;;;1.80;1.70;;;19.80;99.90;;;;;;5003548;28;20489;-26
2021/07/26 07:51:08;;;;;;;1.43;1.33;;;19.70;99.90;;;;;;5019281;28;20433;-26
2021/07/26 07:53:40;;;;;;;2.47;1.57;;;19.70;99.90;;;;;;5003484;28;20751;-26
2021/07/26 07:56:14;;;;;;;1.63;1.53;;;19.70;99.90;;;;;;5013178;28;20458;-26
2021/07/26 07:58:49;;;;;;;2.10;1.90;;;19.60;99.90;;;;;;5023137;28;20438;-26
2021/07/26 08:01:20;;;;;;;1.33;1.23;;;19.60;99.90;;;;;;5003390;28;20425;-26
2021/07/26 08:03:51;;;;;;;1.60;1.50;;;19.50;99.90;;;;;;5007163;28;20491;-27
2021/07/26 08:06:22;;;;;;;1.80;1.70;;;19.50;99.90;;;;;;5006692;28;20459;-27
2021/07/26 08:08:52;;;;;;;2.43;1.77;;;19.50;99.90;;;;;;5007244;28;20444;-26
2021/07/26 08:11:23;;;;;;;1.77;1.30;;;19.40;99.90;;;;;;5006753;28;20584;-26
2021/07/26 08:13:57;;;;;;;1.93;1.37;;;19.40;99.90;;;;;;5012207;28;20465;-26
2021/07/26 08:16:28;;;;;;;1.33;1.23;;;19.30;99.90;;;;;;5026737;28;20441;-26
2021/07/26 08:19:05;;;;;;;1.30;1.20;;;19.30;99.90;;;;;;5010618;28;20510;-26
2021/07/26 08:21:36;;;;;;;1.47;1.37;;;19.20;99.90;;;;;;5006152;28;20448;-26
2021/07/26 08:24:08;;;;;;;1.27;1.17;;;19.20;99.90;;;;;;5006849;28;20487;-26
2021/07/26 08:26:39;;;;;;;1.70;1.60;;;19.10;99.90;;;;;;5014442;28;20446;-27
2021/07/26 08:29:11;;;;;;;1.60;1.40;;;19.10;99.90;;;;;;5010714;28;20450;-27
2021/07/26 08:31:42;;;;;;;1.63;1.53;;;19.00;99.90;;;;;;5007025;28;20451;-26
2021/07/26 08:34:13;;;;;;;1.50;1.40;;;19.00;99.90;;;;;;5006722;28;20509;-27
2021/07/26 08:36:44;;;;;;;1.80;1.70;;;18.90;99.90;;;;;;5017003;28;20981;-26
2021/07/26 08:39:15;;;;;;;2.10;1.70;;;18.90;99.90;;;;;;5010344;28;20459;-26
2021/07/26 08:41:46;;;;;;;2.03;1.83;;;18.80;99.90;;;;;;5016424;28;20458;-26
2021/07/26 08:44:19;;;;;;;1.80;1.70;;;18.80;99.90;;;;;;5025296;28;20505;-28
2021/07/26 08:46:53;;;;;;;1.50;1.40;;;18.70;99.90;;;;;;5025739;28;20569;-27
2021/07/26 08:49:28;;;;;;;1.33;1.23;;;18.70;99.90;;;;;;5010365;28;20455;-27
2021/07/26 08:52:00;;;;;;;1.70;1.60;;;18.70;99.90;;;;;;5010397;28;20608;-27
2021/07/26 08:54:31;;;;;;;1.63;1.53;;;18.60;99.90;;;;;;5016930;28;20539;-27
2021/07/26 08:57:04;;;;;;;1.60;1.50;;;18.60;99.90;;;;;;5011790;28;21249;-27
2021/07/26 08:59:37;;;;;;;1.50;1.40;;;18.60;99.90;;;;;;5008636;28;20451;-27
2021/07/26 09:02:08;;;;;;;1.50;1.40;;;18.50;99.90;;;;;;5011388;28;20489;-27
2021/07/26 09:04:39;;;;;;;1.73;1.60;;;18.50;99.90;;;;;;5025442;28;20486;-27
2021/07/26 09:07:12;;;;;;;2.60;1.57;;;18.50;99.90;;;;;;5025381;28;20421;-26
2021/07/26 09:09:47;;;;;;;1.80;1.70;;;18.40;99.90;;;;;;5016870;28;20439;-27
2021/07/26 09:12:32;;;;;;;1.63;1.53;;;18.40;99.90;;;;;;5025419;28;20445;-26
2021/07/26 09:15:06;;;;;;;2.87;2.00;;;18.30;99.90;;;;;;5024191;28;20480;-26
2021/07/26 09:17:43;;;;;;;1.60;1.30;;;18.30;99.90;;;;;;5005949;28;20459;-26
2021/07/26 09:20:16;;;;;;;1.97;1.87;;;18.30;99.90;;;;;;5014041;28;20475;-26
2021/07/26 09:22:47;;;;;;;1.87;1.77;;;18.20;99.90;;;;;;5004839;28;20475;-26
2021/07/26 09:25:22;;;;;;;1.63;1.53;;;18.20;99.90;;;;;;5006170;28;20534;-27
2021/07/26 09:28:02;;;;;;;1.70;1.53;;;18.20;99.90;;;;;;5005477;28;20458;-26
2021/07/26 09:30:46;;;;;;;1.70;1.60;;;18.10;99.90;;;;;;5019112;28;20499;-26
2021/07/26 09:33:30;;;;;;;1.50;1.40;;;18.10;99.90;;;;;;5024650;28;20538;-26
2021/07/26 09:36:09;;;;;;;1.60;1.50;;;18.00;99.90;;;;;;5023057;28;20478;-26
2021/07/26 09:38:45;;;;;;;1.70;1.60;;;18.00;99.90;;;;;;5008573;28;20462;-26
2021/07/26 09:41:16;;;;;;;1.70;1.60;;;17.90;99.90;;;;;;5018622;28;20473;-27
2021/07/26 09:43:48;;;;;;;1.80;1.70;;;17.90;99.90;;;;;;5004839;28;20782;-26
2021/07/26 09:46:28;;;;;;;1.67;1.57;;;17.90;99.90;;;;;;5021267;28;20545;-26
2021/07/26 09:49:12;;;;;;;1.60;1.50;;;17.90;99.90;;;;;;5005039;28;20447;-26
2021/07/26 09:51:44;;;;;;;3.70;1.40;;;17.80;99.90;;;;;;5004565;28;20455;-26
2021/07/26 09:54:15;;;;;;;1.60;1.50;;;17.80;99.90;;;;;;5005306;28;20482;-27
2021/07/26 09:56:46;;;;;;;2.43;1.87;;;17.70;99.90;;;;;;5019940;28;20455;-26
2021/07/26 09:59:25;;;;;;;1.70;1.53;;;17.70;99.90;;;;;;5004681;28;20447;-26
2021/07/26 10:01:58;;;;;;;1.47;1.37;;;17.60;99.90;;;;;;5005437;28;20447;-26
2021/07/26 10:04:31;;;;;;;1.77;1.67;;;17.60;99.90;;;;;;5019547;28;20490;-27
2021/07/26 10:07:03;;;;;;;1.70;1.60;;;17.60;99.90;;;;;;5008630;28;20918;-25
2021/07/26 10:09:34;;;;;;;1.67;1.57;;;17.50;99.90;;;;;;5023938;28;20473;-26
2021/07/26 10:12:06;;;;;;;2.50;1.50;;;17.60;99.90;;;;;;5023529;28;20451;-26
2021/07/26 10:14:37;;;;;;;2.07;1.87;;;17.60;99.90;;;;;;5022594;28;20481;-26
2021/07/26 10:17:10;;;;;;;1.80;1.70;;;17.50;99.90;;;;;;5005899;28;20539;-27
2021/07/26 10:19:42;;;;;;;5.50;1.93;;;17.50;99.90;;;;;;5005060;28;20470;-27
2021/07/26 10:22:15;;;;;;;2.00;1.70;;;17.40;99.90;;;;;;5015181;28;20466;-27
2021/07/26 10:24:50;;;;;;;2.67;2.47;;;17.40;99.90;;;;;;5022987;28;20514;-27
2021/07/26 10:27:25;;;;;;;1.60;1.50;;;17.30;99.90;;;;;;5019304;28;20534;-26
2021/07/26 10:29:56;;;;;;;2.50;1.77;;;17.30;99.90;;;;;;5014735;28;20546;-26
2021/07/26 10:32:39;;;;;;;1.50;1.40;;;17.30;99.90;;;;;;5023590;28;20458;-26
2021/07/26 10:35:37;;;;;;;1.60;1.40;;;17.20;99.90;;;;;;5018662;28;20538;-26
2021/07/26 10:38:10;;;;;;;1.57;1.40;;;17.20;99.90;;;;;;4999612;28;20540;-26
2021/07/26 10:40:43;;;;;;;2.80;1.70;;;17.10;99.90;;;;;;5005305;28;20462;-26
2021/07/26 10:43:16;;;;;;;1.47;1.37;;;17.20;99.90;;;;;;5019867;28;21917;-27
2021/07/26 10:46:01;;;;;;;2.20;1.90;;;17.10;99.90;;;;;;5018699;28;20494;-27
2021/07/26 10:48:51;;;;;;;2.10;1.60;;;17.00;99.90;;;;;;5004253;28;20523;-26
2021/07/26 10:51:40;;;;;;;1.97;1.87;;;16.90;99.90;;;;;;5003649;28;20466;-26
2021/07/26 10:54:31;;;;;;;1.90;1.37;;;16.90;99.90;;;;;;5022921;28;20482;-26
2021/07/26 10:57:13;;;;;;;1.60;1.40;;;16.90;99.90;;;;;;5023189;28;20453;-27
2021/07/26 11:00:20;;;;;;;1.70;1.60;;;16.90;99.90;;;;;;5003986;28;20479;-26
2021/07/26 11:02:52;;;;;;;2.20;1.80;;;16.90;99.90;;;;;;5016384;28;20516;-27
2021/07/26 11:05:37;;;;;;;2.13;1.77;;;16.80;99.90;;;;;;5022558;28;20496;-27
2021/07/26 11:08:28;;;;;;;2.50;1.83;;;16.70;99.90;;;;;;5022188;28;21027;-27
2021/07/26 11:10:59;;;;;;;3.07;2.10;;;16.70;99.90;;;;;;5022829;28;20478;-27
2021/07/26 11:14:06;;;;;;;2.20;1.93;;;16.60;99.90;;;;;;5022658;28;20454;-27
2021/07/26 11:17:07;;;;;;;1.80;1.40;;;16.70;99.90;;;;;;5003500;28;20539;-27
2021/07/26 11:19:58;;;;;;;2.00;1.90;;;16.60;99.90;;;;;;4957951;28;21022;-27
2021/07/26 11:23:01;;;;;;;2.50;2.30;;;16.50;99.90;;;;;;4961620;28;20488;-27
2021/07/26 11:25:35;;;;;;;5.23;1.83;;;16.50;99.90;;;;;;4961621;29;20575;-27
2021/07/26 11:28:06;;;;;;;2.07;1.87;;;16.40;99.90;;;;;;4961857;28;20535;-26
2021/07/26 11:30:39;;;;;;;1.80;1.70;;;16.40;99.90;;;;;;4952622;28;20452;-27
2021/07/26 11:33:12;;;;;;;1.90;1.80;;;16.40;99.90;;;;;;4962526;29;20477;-27
2021/07/26 11:35:43;;;;;;;3.40;1.90;;;16.40;99.90;;;;;;4961487;28;20477;-26
2021/07/26 11:38:16;;;;;;;2.10;1.90;;;16.40;99.90;;;;;;4964570;29;20496;-26
2021/07/26 11:40:47;;;;;;;2.47;1.90;;;16.40;99.90;;;;;;4966401;28;20456;-26
2021/07/26 11:43:35;;;;;;;2.30;2.10;;;16.30;99.90;;;;;;4966076;28;20531;-26
2021/07/26 11:46:10;;;;;;;2.20;2.10;;;16.30;99.90;;;;;;4965138;28;20503;-26
2021/07/26 11:48:40;;;;;;;3.50;2.20;;;16.30;99.90;;;;;;4965955;29;20456;-26
2021/07/26 11:51:29;;;;;;;2.10;1.87;;;16.20;99.90;;;;;;4965609;29;20457;-26
2021/07/26 11:54:06;;;;;;;1.90;1.80;;;16.20;99.90;;;;;;4966286;29;20484;-26
2021/07/26 11:56:38;;;;;;;2.87;2.03;;;16.20;99.90;;;;;;5014484;28;20476;-26
2021/07/26 11:59:23;;;;;;;2.17;2.07;;;16.10;99.90;;;;;;5009460;28;20455;-26
2021/07/26 12:01:59;;;;;;;2.40;2.20;;;16.10;99.90;;;;;;5007213;28;20488;-26
2021/07/26 12:04:31;;;;;;;2.70;2.33;;;16.10;99.90;;;;;;5007220;28;20530;-26
2021/07/26 12:07:03;;;;;;;3.00;2.40;;;16.10;99.90;;;;;;5010720;28;20457;-27
2021/07/26 12:09:36;;;;;;;2.17;2.00;;;16.10;99.90;;;;;;5021619;28;20463;-26
2021/07/26 12:12:14;;;;;;;3.17;2.10;;;16.10;99.90;;;;;;5006896;28;20471;-26
2021/07/26 12:14:46;;;;;;;2.03;1.83;;;16.00;99.90;;;;;;5019937;28;20527;-27
2021/07/26 12:17:25;;;;;;;2.80;2.60;;;15.90;99.90;;;;;;5008151;28;20475;-27
2021/07/26 12:20:05;;;;;;;3.77;2.20;;;16.00;99.90;;;;;;5025730;28;20468;-27
2021/07/26 12:22:43;;;;;;;3.87;2.17;;;15.90;99.90;;;;;;5025512;28;20461;-27
2021/07/26 12:25:22;;;;;;;2.70;1.90;;;15.90;99.90;;;;;;5025641;28;20517;-26
2021/07/26 12:27:58;;;;;;;2.03;1.83;;;15.90;99.90;;;;;;5024824;28;20878;-27
2021/07/26 12:30:39;;;;;;;2.60;2.37;;;15.90;99.90;;;;;;5012550;28;20451;-27
2021/07/26 12:33:11;;;;;;;4.13;2.23;;;15.90;99.90;;;;;;5006723;28;20481;-27
2021/07/26 12:35:42;;;;;;;2.83;1.87;;;15.90;99.90;;;;;;5012127;28;20450;-27
2021/07/26 12:38:20;;;;;;;3.87;2.03;;;15.80;99.90;;;;;;5025482;28;20458;-26
2021/07/26 12:41:06;;;;;;;2.33;2.13;;;15.80;99.90;;;;;;5010904;28;20459;-26
2021/07/26 12:43:39;;;;;;;2.73;1.90;;;15.80;99.90;;;;;;5007236;28;20978;-26
2021/07/26 12:46:10;;;;;;;1.93;1.83;;;15.80;99.90;;;;;;5024821;28;20569;-27
2021/07/26 12:48:41;;;;;;;3.60;2.53;;;15.70;99.90;;;;;;5008584;28;20550;-26
2021/07/26 12:51:12;;;;;;;2.47;2.17;;;15.80;99.90;;;;;;5005711;28;21243;-26
2021/07/26 12:53:52;;;;;;;2.80;2.47;;;15.80;99.90;;;;;;5007139;28;20518;-26
2021/07/26 12:56:25;;;;;;;3.90;2.50;;;15.80;99.90;;;;;;5017024;28;20451;-27
2021/07/26 12:58:59;;;;;;;2.30;2.10;;;15.80;99.90;;;;;;5005234;28;20455;-25
2021/07/26 13:01:30;;;;;;;3.30;2.10;;;15.80;99.90;;;;;;5006021;28;20486;-26
2021/07/26 13:04:01;;;;;;;2.80;2.50;;;15.80;99.90;;;;;;5006624;28;20439;-26
2021/07/26 13:06:33;;;;;;;3.30;2.30;;;15.80;99.90;;;;;;5013912;28;20481;-26
2021/07/26 13:09:04;;;;;;;2.40;2.20;;;15.80;99.90;;;;;;5012778;28;20450;-26
2021/07/26 13:11:37;;;;;;;2.50;2.07;;;15.80;99.90;;;;;;5022574;28;20482;-26
2021/07/26 13:14:08;;;;;;;2.87;2.30;;;15.90;99.90;;;;;;5024832;28;20485;-27
2021/07/26 13:16:39;;;;;;;2.50;2.13;;;15.90;99.90;;;;;;5015219;28;20448;-27
2021/07/26 13:19:10;;;;;;;2.90;2.60;;;15.80;99.90;;;;;;5017159;28;20458;-27
2021/07/26 13:21:43;;;;;;;2.33;2.10;;;15.80;99.90;;;;;;5024502;28;20458;-27